sensor_id;sensor_type;location;lat;lon;timestamp;pressure;altitude;pressure_sealevel;temperature;humidity
61761;BME280;47664;51.660;-0.100;2023-04-26T00:00:16;101314.88;;;7.64;49.11
61761;BME280;47664;51.660;-0.100;2023-04-26T00:02:43;101312.18;;;7.37;49.17
61761;BME280;47664;51.660;-0.100;2023-04-26T00:05:10;101309.23;;;7.83;48.95
61761;BME280;47664;51.660;-0.100;2023-04-26T00:07:37;101309.60;;;7.38;48.75
61761;BME280;47664;51.660;-0.100;2023-04-26T00:10:05;101309.05;;;7.76;48.41
61761;BME280;47664;51.660;-0.100;2023-04-26T00:12:33;101302.59;;;7.28;48.83
61761;BME280;47664;51.660;-0.100;2023-04-26T00:15:00;101300.19;;;7.77;48.98
61761;BME280;47664;51.660;-0.100;2023-04-26T00:17:28;101296.43;;;8.28;48.85
61761;BME280;47664;51.660;-0.100;2023-04-26T00:19:55;101293.21;;;7.72;49.10
61761;BME280;47664;51.660;-0.100;2023-04-26T00:22:23;101289.30;;;8.27;48.86
61761;BME280;47664;51.660;-0.100;2023-04-26T00:24:50;101287.37;;;7.53;49.38
61761;BME280;47664;51.660;-0.100;2023-04-26T00:27:17;101284.04;;;7.91;49.58
61761;BME280;47664;51.660;-0.100;2023-04-26T00:29:44;101282.42;;;7.25;49.79
61761;BME280;47664;51.660;-0.100;2023-04-26T00:32:11;101278.96;;;7.61;49.83
61761;BME280;47664;51.660;-0.100;2023-04-26T00:34:38;101273.53;;;6.90;49.92
61761;BME280;47664;51.660;-0.100;2023-04-26T00:37:06;101268.52;;;7.52;49.84
61761;BME280;47664;51.660;-0.100;2023-04-26T00:39:33;101267.22;;;6.63;50.15
61761;BME280;47664;51.660;-0.100;2023-04-26T00:42:01;101265.90;;;7.20;50.40
61761;BME280;47664;51.660;-0.100;2023-04-26T00:44:28;101262.47;;;7.35;50.65
61761;BME280;47664;51.660;-0.100;2023-04-26T00:46:56;101264.92;;;7.34;50.38
61761;BME280;47664;51.660;-0.100;2023-04-26T00:49:24;101266.22;;;7.52;49.96
61761;BME280;47664;51.660;-0.100;2023-04-26T00:51:51;101266.55;;;7.28;50.09
61761;BME280;47664;51.660;-0.100;2023-04-26T00:54:20;101269.86;;;7.14;50.16
61761;BME280;47664;51.660;-0.100;2023-04-26T00:56:46;101271.62;;;7.07;50.40
61761;BME280;47664;51.660;-0.100;2023-04-26T00:59:13;101270.70;;;7.17;50.43
61761;BME280;47664;51.660;-0.100;2023-04-26T01:01:41;101267.18;;;6.17;50.26
61761;BME280;47664;51.660;-0.100;2023-04-26T01:04:08;101262.34;;;7.90;49.82
61761;BME280;47664;51.660;-0.100;2023-04-26T01:06:35;101258.72;;;6.85;49.52
61761;BME280;47664;51.660;-0.100;2023-04-26T01:09:04;101261.47;;;7.51;49.56
61761;BME280;47664;51.660;-0.100;2023-04-26T01:11:32;101264.12;;;7.40;49.36
61761;BME280;47664;51.660;-0.100;2023-04-26T01:14:01;101261.95;;;7.84;49.02
61761;BME280;47664;51.660;-0.100;2023-04-26T01:16:29;101257.62;;;7.86;49.02
61761;BME280;47664;51.660;-0.100;2023-04-26T01:18:56;101254.26;;;7.04;50.08
61761;BME280;47664;51.660;-0.100;2023-04-26T01:21:23;101252.84;;;7.53;50.01
61761;BME280;47664;51.660;-0.100;2023-04-26T01:23:51;101254.69;;;7.15;50.39
61761;BME280;47664;51.660;-0.100;2023-04-26T01:26:18;101251.03;;;6.80;51.29
61761;BME280;47664;51.660;-0.100;2023-04-26T01:28:45;101249.33;;;6.85;51.02
61761;BME280;47664;51.660;-0.100;2023-04-26T01:31:12;101246.17;;;6.89;51.06
61761;BME280;47664;51.660;-0.100;2023-04-26T01:33:39;101246.03;;;6.23;51.10
61761;BME280;47664;51.660;-0.100;2023-04-26T01:36:07;101244.44;;;7.08;50.90
61761;BME280;47664;51.660;-0.100;2023-04-26T01:38:36;101238.76;;;6.91;50.48
61761;BME280;47664;51.660;-0.100;2023-04-26T01:41:03;101235.54;;;6.97;50.93
61761;BME280;47664;51.660;-0.100;2023-04-26T01:43:31;101234.81;;;6.38;51.34
61761;BME280;47664;51.660;-0.100;2023-04-26T01:45:58;101238.22;;;6.73;51.05
61761;BME280;47664;51.660;-0.100;2023-04-26T01:48:25;101235.11;;;6.99;50.86
61761;BME280;47664;51.660;-0.100;2023-04-26T01:50:53;101231.04;;;6.99;50.63
61761;BME280;47664;51.660;-0.100;2023-04-26T01:53:20;101227.15;;;6.85;50.93
61761;BME280;47664;51.660;-0.100;2023-04-26T01:55:47;101229.96;;;6.70;51.10
61761;BME280;47664;51.660;-0.100;2023-04-26T01:58:15;101230.14;;;6.75;51.00
61761;BME280;47664;51.660;-0.100;2023-04-26T02:00:42;101232.08;;;6.66;50.87
61761;BME280;47664;51.660;-0.100;2023-04-26T02:03:09;101232.65;;;6.99;50.71
61761;BME280;47664;51.660;-0.100;2023-04-26T02:05:37;101234.36;;;6.32;51.18
61761;BME280;47664;51.660;-0.100;2023-04-26T02:08:04;101234.17;;;6.99;50.90
61761;BME280;47664;51.660;-0.100;2023-04-26T02:10:32;101232.80;;;6.77;50.31
61761;BME280;47664;51.660;-0.100;2023-04-26T02:12:59;101236.00;;;7.14;50.42
61761;BME280;47664;51.660;-0.100;2023-04-26T02:15:26;101235.12;;;7.18;50.18
61761;BME280;47664;51.660;-0.100;2023-04-26T02:17:54;101235.29;;;7.06;50.05
61761;BME280;47664;51.660;-0.100;2023-04-26T02:20:21;101237.24;;;7.06;50.32
61761;BME280;47664;51.660;-0.100;2023-04-26T02:22:48;101238.42;;;6.71;50.00
61761;BME280;47664;51.660;-0.100;2023-04-26T02:25:15;101234.95;;;6.87;50.54
61761;BME280;47664;51.660;-0.100;2023-04-26T02:27:42;101236.62;;;6.36;49.69
61761;BME280;47664;51.660;-0.100;2023-04-26T02:30:10;101235.29;;;7.10;49.97
61761;BME280;47664;51.660;-0.100;2023-04-26T02:32:37;101236.48;;;6.78;49.93
61761;BME280;47664;51.660;-0.100;2023-04-26T02:35:05;101235.48;;;7.30;49.88
61761;BME280;47664;51.660;-0.100;2023-04-26T02:37:32;101230.29;;;7.10;49.75
61761;BME280;47664;51.660;-0.100;2023-04-26T02:39:59;101227.28;;;7.24;49.82
61761;BME280;47664;51.660;-0.100;2023-04-26T02:42:28;101224.07;;;7.04;50.19
61761;BME280;47664;51.660;-0.100;2023-04-26T02:44:55;101227.32;;;6.81;50.21
61761;BME280;47664;51.660;-0.100;2023-04-26T02:47:22;101221.53;;;7.17;50.08
61761;BME280;47664;51.660;-0.100;2023-04-26T02:49:49;101215.92;;;6.99;50.40
61761;BME280;47664;51.660;-0.100;2023-04-26T02:52:16;101217.07;;;7.02;50.71
61761;BME280;47664;51.660;-0.100;2023-04-26T02:54:43;101220.75;;;6.90;50.45
61761;BME280;47664;51.660;-0.100;2023-04-26T02:57:10;101222.25;;;7.16;50.14
61761;BME280;47664;51.660;-0.100;2023-04-26T02:59:37;101220.81;;;6.53;50.27
61761;BME280;47664;51.660;-0.100;2023-04-26T03:02:09;101222.06;;;6.83;50.49
61761;BME280;47664;51.660;-0.100;2023-04-26T03:04:37;101221.70;;;6.16;50.41
61761;BME280;47664;51.660;-0.100;2023-04-26T03:07:04;101225.14;;;7.06;50.36
61761;BME280;47664;51.660;-0.100;2023-04-26T03:09:32;101225.36;;;6.61;50.54
61761;BME280;47664;51.660;-0.100;2023-04-26T03:11:59;101220.07;;;6.49;50.88
61761;BME280;47664;51.660;-0.100;2023-04-26T03:14:26;101216.40;;;7.00;50.50
61761;BME280;47664;51.660;-0.100;2023-04-26T03:16:53;101212.11;;;6.98;49.88
61761;BME280;47664;51.660;-0.100;2023-04-26T03:19:22;101204.52;;;7.45;49.79
61761;BME280;47664;51.660;-0.100;2023-04-26T03:21:49;101201.33;;;7.27;49.43
61761;BME280;47664;51.660;-0.100;2023-04-26T03:24:17;101198.67;;;7.21;49.92
61761;BME280;47664;51.660;-0.100;2023-04-26T03:26:44;101201.15;;;6.24;51.12
61761;BME280;47664;51.660;-0.100;2023-04-26T03:29:11;101200.63;;;6.72;51.26
61761;BME280;47664;51.660;-0.100;2023-04-26T03:31:38;101197.88;;;6.40;51.13
61761;BME280;47664;51.660;-0.100;2023-04-26T03:34:05;101196.80;;;6.85;51.07
61761;BME280;47664;51.660;-0.100;2023-04-26T03:36:33;101197.23;;;6.11;51.75
61761;BME280;47664;51.660;-0.100;2023-04-26T03:39:00;101199.63;;;5.95;52.72
61761;BME280;47664;51.660;-0.100;2023-04-26T03:41:28;101199.08;;;6.79;51.97
61761;BME280;47664;51.660;-0.100;2023-04-26T03:43:56;101202.35;;;6.06;52.74
61761;BME280;47664;51.660;-0.100;2023-04-26T03:46:23;101200.89;;;5.87;54.17
61761;BME280;47664;51.660;-0.100;2023-04-26T03:48:50;101197.64;;;6.05;53.62
61761;BME280;47664;51.660;-0.100;2023-04-26T03:51:16;101192.96;;;6.55;52.27
61761;BME280;47664;51.660;-0.100;2023-04-26T03:53:43;101193.24;;;6.71;52.04
61761;BME280;47664;51.660;-0.100;2023-04-26T03:56:10;101189.37;;;6.64;51.87
61761;BME280;47664;51.660;-0.100;2023-04-26T03:58:38;101188.51;;;6.28;51.46
61761;BME280;47664;51.660;-0.100;2023-04-26T04:01:05;101186.64;;;6.82;51.33
61761;BME280;47664;51.660;-0.100;2023-04-26T04:03:33;101181.41;;;6.60;51.23
61761;BME280;47664;51.660;-0.100;2023-04-26T04:06:00;101182.50;;;6.75;50.92
61761;BME280;47664;51.660;-0.100;2023-04-26T04:08:28;101181.85;;;6.62;51.52
61761;BME280;47664;51.660;-0.100;2023-04-26T04:10:55;101178.33;;;6.55;51.29
61761;BME280;47664;51.660;-0.100;2023-04-26T04:13:22;101181.20;;;6.85;51.53
61761;BME280;47664;51.660;-0.100;2023-04-26T04:15:50;101180.73;;;6.00;52.65
61761;BME280;47664;51.660;-0.100;2023-04-26T04:18:17;101180.06;;;5.91;53.96
61761;BME280;47664;51.660;-0.100;2023-04-26T04:20:45;101180.05;;;5.65;54.28
61761;BME280;47664;51.660;-0.100;2023-04-26T04:23:12;101174.31;;;5.99;54.31
61761;BME280;47664;51.660;-0.100;2023-04-26T04:25:39;101171.46;;;5.72;53.36
61761;BME280;47664;51.660;-0.100;2023-04-26T04:28:06;101166.63;;;6.41;52.56
61761;BME280;47664;51.660;-0.100;2023-04-26T04:30:34;101163.64;;;6.23;52.25
61761;BME280;47664;51.660;-0.100;2023-04-26T04:33:00;101163.94;;;6.70;51.95
61761;BME280;47664;51.660;-0.100;2023-04-26T04:35:29;101164.04;;;6.91;51.60
61761;BME280;47664;51.660;-0.100;2023-04-26T04:37:57;101163.49;;;7.08;51.01
61761;BME280;47664;51.660;-0.100;2023-04-26T04:40:24;101165.67;;;7.08;51.00
61761;BME280;47664;51.660;-0.100;2023-04-26T04:42:52;101167.04;;;7.24;50.54
61761;BME280;47664;51.660;-0.100;2023-04-26T04:45:19;101165.24;;;7.16;50.69
61761;BME280;47664;51.660;-0.100;2023-04-26T04:47:46;101167.95;;;7.12;50.77
61761;BME280;47664;51.660;-0.100;2023-04-26T04:50:13;101166.94;;;7.15;50.93
61761;BME280;47664;51.660;-0.100;2023-04-26T04:52:40;101164.90;;;6.99;50.63
61761;BME280;47664;51.660;-0.100;2023-04-26T04:55:07;101165.54;;;7.11;50.80
61761;BME280;47664;51.660;-0.100;2023-04-26T04:57:35;101168.11;;;6.42;51.11
61761;BME280;47664;51.660;-0.100;2023-04-26T05:00:04;101168.56;;;7.12;51.27
61761;BME280;47664;51.660;-0.100;2023-04-26T05:02:32;101170.18;;;6.62;51.52
61761;BME280;47664;51.660;-0.100;2023-04-26T05:04:59;101171.65;;;7.34;50.78
61761;BME280;47664;51.660;-0.100;2023-04-26T05:07:26;101169.19;;;7.26;50.80
61761;BME280;47664;51.660;-0.100;2023-04-26T05:09:53;101167.97;;;7.23;51.13
61761;BME280;47664;51.660;-0.100;2023-04-26T05:12:20;101169.26;;;7.18;51.32
61761;BME280;47664;51.660;-0.100;2023-04-26T05:14:47;101171.39;;;6.23;51.40
61761;BME280;47664;51.660;-0.100;2023-04-26T05:17:15;101173.88;;;7.27;50.96
61761;BME280;47664;51.660;-0.100;2023-04-26T05:19:42;101170.80;;;6.38;51.43
61761;BME280;47664;51.660;-0.100;2023-04-26T05:22:09;101169.63;;;6.98;51.98
61761;BME280;47664;51.660;-0.100;2023-04-26T05:24:36;101170.04;;;6.19;52.29
61761;BME280;47664;51.660;-0.100;2023-04-26T05:27:04;101173.49;;;7.25;51.73
61761;BME280;47664;51.660;-0.100;2023-04-26T05:29:31;101171.12;;;6.84;51.56
61761;BME280;47664;51.660;-0.100;2023-04-26T05:31:59;101168.57;;;6.96;51.16
61761;BME280;47664;51.660;-0.100;2023-04-26T05:34:26;101167.80;;;7.12;50.41
61761;BME280;47664;51.660;-0.100;2023-04-26T05:36:53;101165.22;;;7.01;50.36
61761;BME280;47664;51.660;-0.100;2023-04-26T05:39:21;101169.23;;;7.11;50.78
61761;BME280;47664;51.660;-0.100;2023-04-26T05:41:48;101172.81;;;6.64;51.27
61761;BME280;47664;51.660;-0.100;2023-04-26T05:44:16;101171.20;;;6.88;51.54
61761;BME280;47664;51.660;-0.100;2023-04-26T05:46:42;101175.84;;;6.06;51.89
61761;BME280;47664;51.660;-0.100;2023-04-26T05:49:10;101176.34;;;6.44;53.02
61761;BME280;47664;51.660;-0.100;2023-04-26T05:51:37;101172.29;;;5.42;53.63
61761;BME280;47664;51.660;-0.100;2023-04-26T05:54:04;101167.61;;;6.18;53.78
61761;BME280;47664;51.660;-0.100;2023-04-26T05:56:32;101175.31;;;5.85;53.81
61761;BME280;47664;51.660;-0.100;2023-04-26T05:58:59;101175.90;;;6.11;53.88
61761;BME280;47664;51.660;-0.100;2023-04-26T06:01:26;101178.73;;;6.26;53.78
61761;BME280;47664;51.660;-0.100;2023-04-26T06:03:53;101179.85;;;6.04;53.90
61761;BME280;47664;51.660;-0.100;2023-04-26T06:06:20;101178.71;;;5.90;53.97
61761;BME280;47664;51.660;-0.100;2023-04-26T06:08:48;101185.27;;;6.06;53.92
61761;BME280;47664;51.660;-0.100;2023-04-26T06:11:15;101189.23;;;5.81;54.54
61761;BME280;47664;51.660;-0.100;2023-04-26T06:13:42;101194.21;;;5.70;55.01
61761;BME280;47664;51.660;-0.100;2023-04-26T06:16:10;101199.96;;;6.19;54.84
61761;BME280;47664;51.660;-0.100;2023-04-26T06:18:38;101198.15;;;6.02;53.79
61761;BME280;47664;51.660;-0.100;2023-04-26T06:21:05;101201.06;;;6.33;54.37
61761;BME280;47664;51.660;-0.100;2023-04-26T06:23:32;101200.11;;;6.52;53.81
61761;BME280;47664;51.660;-0.100;2023-04-26T06:26:00;101198.93;;;6.26;54.14
61761;BME280;47664;51.660;-0.100;2023-04-26T06:28:27;101196.31;;;6.56;54.69
61761;BME280;47664;51.660;-0.100;2023-04-26T06:30:55;101193.16;;;6.71;53.82
61761;BME280;47664;51.660;-0.100;2023-04-26T06:33:22;101194.76;;;6.76;54.06
61761;BME280;47664;51.660;-0.100;2023-04-26T06:35:49;101196.25;;;6.57;54.09
61761;BME280;47664;51.660;-0.100;2023-04-26T06:38:21;101197.35;;;6.83;53.52
61761;BME280;47664;51.660;-0.100;2023-04-26T06:40:49;101196.50;;;6.93;52.91
61761;BME280;47664;51.660;-0.100;2023-04-26T06:43:16;101200.10;;;6.81;53.08
61761;BME280;47664;51.660;-0.100;2023-04-26T06:45:43;101199.99;;;6.58;53.04
61761;BME280;47664;51.660;-0.100;2023-04-26T06:48:09;101193.84;;;6.81;53.13
61761;BME280;47664;51.660;-0.100;2023-04-26T06:50:37;101190.20;;;6.37;53.35
61761;BME280;47664;51.660;-0.100;2023-04-26T06:53:04;101190.13;;;6.81;52.99
61761;BME280;47664;51.660;-0.100;2023-04-26T06:55:32;101191.41;;;6.32;53.48
61761;BME280;47664;51.660;-0.100;2023-04-26T06:57:59;101185.98;;;6.88;53.45
61761;BME280;47664;51.660;-0.100;2023-04-26T07:00:26;101182.30;;;7.04;53.17
61761;BME280;47664;51.660;-0.100;2023-04-26T07:02:53;101178.30;;;7.04;52.86
61761;BME280;47664;51.660;-0.100;2023-04-26T07:05:20;101182.07;;;6.74;53.38
61761;BME280;47664;51.660;-0.100;2023-04-26T07:07:48;101179.60;;;6.53;53.58
61761;BME280;47664;51.660;-0.100;2023-04-26T07:10:15;101175.25;;;7.50;52.17
61761;BME280;47664;51.660;-0.100;2023-04-26T07:12:43;101185.14;;;6.09;52.50
61761;BME280;47664;51.660;-0.100;2023-04-26T07:15:10;101189.36;;;7.24;52.57
61761;BME280;47664;51.660;-0.100;2023-04-26T07:17:42;101188.13;;;6.52;52.42
61761;BME280;47664;51.660;-0.100;2023-04-26T07:20:10;101188.07;;;7.31;52.06
61761;BME280;47664;51.660;-0.100;2023-04-26T07:22:38;101187.33;;;6.74;51.98
61761;BME280;47664;51.660;-0.100;2023-04-26T07:25:06;101185.28;;;6.86;52.49
61761;BME280;47664;51.660;-0.100;2023-04-26T07:27:34;101183.58;;;6.98;52.25
61761;BME280;47664;51.660;-0.100;2023-04-26T07:30:01;101178.36;;;6.87;51.87
61761;BME280;47664;51.660;-0.100;2023-04-26T07:32:29;101178.75;;;7.44;51.18
61761;BME280;47664;51.660;-0.100;2023-04-26T07:34:57;101171.48;;;7.56;50.96
61761;BME280;47664;51.660;-0.100;2023-04-26T07:37:24;101166.19;;;7.82;50.62
61761;BME280;47664;51.660;-0.100;2023-04-26T07:39:51;101174.25;;;7.55;50.77
61761;BME280;47664;51.660;-0.100;2023-04-26T07:42:18;101178.73;;;7.71;50.54
61761;BME280;47664;51.660;-0.100;2023-04-26T07:44:47;101181.41;;;7.19;50.24
61761;BME280;47664;51.660;-0.100;2023-04-26T07:47:14;101182.42;;;6.92;50.39
61761;BME280;47664;51.660;-0.100;2023-04-26T07:49:41;101182.13;;;6.91;49.67
61761;BME280;47664;51.660;-0.100;2023-04-26T07:52:08;101176.76;;;7.66;49.67
61761;BME280;47664;51.660;-0.100;2023-04-26T07:54:36;101179.51;;;7.73;48.43
61761;BME280;47664;51.660;-0.100;2023-04-26T07:57:03;101181.87;;;7.87;48.05
61761;BME280;47664;51.660;-0.100;2023-04-26T07:59:31;101182.67;;;8.57;47.62
61761;BME280;47664;51.660;-0.100;2023-04-26T08:01:58;101180.80;;;8.35;47.36
61761;BME280;47664;51.660;-0.100;2023-04-26T08:04:31;101183.21;;;8.09;46.96
61761;BME280;47664;51.660;-0.100;2023-04-26T08:06:59;101186.75;;;7.28;48.43
61761;BME280;47664;51.660;-0.100;2023-04-26T08:09:26;101188.14;;;7.25;48.29
61761;BME280;47664;51.660;-0.100;2023-04-26T08:11:54;101190.49;;;7.47;48.37
61761;BME280;47664;51.660;-0.100;2023-04-26T08:14:21;101189.84;;;7.86;47.59
61761;BME280;47664;51.660;-0.100;2023-04-26T08:16:48;101197.66;;;7.77;46.66
61761;BME280;47664;51.660;-0.100;2023-04-26T08:19:16;101197.02;;;8.57;46.02
61761;BME280;47664;51.660;-0.100;2023-04-26T08:21:43;101192.66;;;7.96;45.09
61761;BME280;47664;51.660;-0.100;2023-04-26T08:24:10;101189.71;;;8.27;45.88
61761;BME280;47664;51.660;-0.100;2023-04-26T08:26:37;101183.97;;;7.86;45.94
61761;BME280;47664;51.660;-0.100;2023-04-26T08:29:05;101180.24;;;8.56;45.95
61761;BME280;47664;51.660;-0.100;2023-04-26T08:31:32;101178.53;;;7.81;45.39
61761;BME280;47664;51.660;-0.100;2023-04-26T08:33:59;101178.29;;;7.95;46.21
61761;BME280;47664;51.660;-0.100;2023-04-26T08:36:27;101178.75;;;8.47;45.87
61761;BME280;47664;51.660;-0.100;2023-04-26T08:38:54;101179.00;;;7.94;46.14
61761;BME280;47664;51.660;-0.100;2023-04-26T08:41:21;101178.18;;;8.26;46.03
61761;BME280;47664;51.660;-0.100;2023-04-26T08:43:49;101180.53;;;7.97;46.38
61761;BME280;47664;51.660;-0.100;2023-04-26T08:46:18;101177.65;;;7.97;47.00
61761;BME280;47664;51.660;-0.100;2023-04-26T08:48:53;101177.20;;;7.49;47.20
61761;BME280;47664;51.660;-0.100;2023-04-26T08:51:23;101173.07;;;7.49;47.35
61761;BME280;47664;51.660;-0.100;2023-04-26T08:53:52;101169.70;;;8.04;47.20
61761;BME280;47664;51.660;-0.100;2023-04-26T08:56:22;101172.31;;;8.32;46.78
61761;BME280;47664;51.660;-0.100;2023-04-26T08:58:51;101171.22;;;7.68;46.50
61761;BME280;47664;51.660;-0.100;2023-04-26T09:01:19;101172.71;;;8.22;46.98
61761;BME280;47664;51.660;-0.100;2023-04-26T09:03:46;101177.74;;;7.91;47.15
61761;BME280;47664;51.660;-0.100;2023-04-26T09:06:14;101179.37;;;8.11;46.60
61761;BME280;47664;51.660;-0.100;2023-04-26T09:08:42;101178.51;;;7.78;46.37
61761;BME280;47664;51.660;-0.100;2023-04-26T09:11:09;101180.42;;;8.60;45.89
61761;BME280;47664;51.660;-0.100;2023-04-26T09:13:37;101177.96;;;8.33;45.44
61761;BME280;47664;51.660;-0.100;2023-04-26T09:16:04;101178.05;;;8.34;44.04
61761;BME280;47664;51.660;-0.100;2023-04-26T09:18:32;101181.54;;;7.87;44.31
61761;BME280;47664;51.660;-0.100;2023-04-26T09:21:03;101182.97;;;8.08;43.74
61761;BME280;47664;51.660;-0.100;2023-04-26T09:23:31;101183.22;;;7.90;41.88
61761;BME280;47664;51.660;-0.100;2023-04-26T09:26:29;101179.77;;;7.87;41.25
61761;BME280;47664;51.660;-0.100;2023-04-26T09:29:13;101186.51;;;7.20;41.33
61761;BME280;47664;51.660;-0.100;2023-04-26T09:31:42;101186.16;;;7.12;40.55
61761;BME280;47664;51.660;-0.100;2023-04-26T09:34:10;101184.56;;;7.87;41.26
61761;BME280;47664;51.660;-0.100;2023-04-26T09:36:54;101183.52;;;7.42;40.56
61761;BME280;47664;51.660;-0.100;2023-04-26T09:39:31;101184.42;;;8.41;40.41
61761;BME280;47664;51.660;-0.100;2023-04-26T09:41:59;101181.37;;;8.10;40.22
61761;BME280;47664;51.660;-0.100;2023-04-26T09:44:28;101183.72;;;7.80;40.73
61761;BME280;47664;51.660;-0.100;2023-04-26T09:46:58;101188.40;;;7.42;40.89
61761;BME280;47664;51.660;-0.100;2023-04-26T09:49:26;101188.57;;;7.52;40.64
61761;BME280;47664;51.660;-0.100;2023-04-26T09:52:02;101191.14;;;7.24;40.87
61761;BME280;47664;51.660;-0.100;2023-04-26T09:54:39;101189.19;;;7.68;40.20
61761;BME280;47664;51.660;-0.100;2023-04-26T09:57:06;101192.39;;;7.68;39.76
61761;BME280;47664;51.660;-0.100;2023-04-26T09:59:43;101193.11;;;7.12;40.53
61761;BME280;47664;51.660;-0.100;2023-04-26T10:02:14;101195.84;;;7.47;40.67
61761;BME280;47664;51.660;-0.100;2023-04-26T10:04:45;101192.66;;;6.70;40.59
61761;BME280;47664;51.660;-0.100;2023-04-26T10:07:13;101183.07;;;7.90;40.21
61761;BME280;47664;51.660;-0.100;2023-04-26T10:09:41;101182.76;;;7.65;39.20
61761;BME280;47664;51.660;-0.100;2023-04-26T10:12:11;101179.93;;;8.24;39.09
61761;BME280;47664;51.660;-0.100;2023-04-26T10:14:39;101179.95;;;7.39;39.56
61761;BME280;47664;51.660;-0.100;2023-04-26T10:17:06;101180.73;;;7.94;39.67
61761;BME280;47664;51.660;-0.100;2023-04-26T10:19:35;101181.60;;;7.65;39.69
61761;BME280;47664;51.660;-0.100;2023-04-26T10:22:07;101181.79;;;8.23;39.44
61761;BME280;47664;51.660;-0.100;2023-04-26T10:24:36;101178.51;;;7.80;39.60
61761;BME280;47664;51.660;-0.100;2023-04-26T10:27:04;101180.15;;;8.00;39.27
61761;BME280;47664;51.660;-0.100;2023-04-26T10:30:53;101179.89;;;7.90;39.56
61761;BME280;47664;51.660;-0.100;2023-04-26T10:33:20;101177.40;;;8.15;39.59
61761;BME280;47664;51.660;-0.100;2023-04-26T10:36:07;101178.14;;;8.21;39.16
61761;BME280;47664;51.660;-0.100;2023-04-26T10:38:36;101179.12;;;8.28;38.66
61761;BME280;47664;51.660;-0.100;2023-04-26T10:41:30;101169.74;;;8.48;38.04
61761;BME280;47664;51.660;-0.100;2023-04-26T10:43:59;101163.76;;;7.68;39.67
61761;BME280;47664;51.660;-0.100;2023-04-26T10:46:49;101159.19;;;8.22;39.43
61761;BME280;47664;51.660;-0.100;2023-04-26T10:49:19;101157.16;;;8.14;39.74
61761;BME280;47664;51.660;-0.100;2023-04-26T10:52:19;101157.66;;;7.49;39.76
61761;BME280;47664;51.660;-0.100;2023-04-26T10:54:49;101152.19;;;7.75;39.80
61761;BME280;47664;51.660;-0.100;2023-04-26T10:57:17;101150.43;;;7.95;40.34
61761;BME280;47664;51.660;-0.100;2023-04-26T11:00:18;101155.66;;;7.42;40.03
61761;BME280;47664;51.660;-0.100;2023-04-26T11:02:50;101154.25;;;7.20;39.40
61761;BME280;47664;51.660;-0.100;2023-04-26T11:05:36;101148.46;;;8.32;39.02
61761;BME280;47664;51.660;-0.100;2023-04-26T11:08:06;101146.09;;;8.10;39.82
61761;BME280;47664;51.660;-0.100;2023-04-26T11:10:35;101142.14;;;7.62;40.14
61761;BME280;47664;51.660;-0.100;2023-04-26T11:13:03;101144.86;;;8.24;39.39
61761;BME280;47664;51.660;-0.100;2023-04-26T11:15:31;101145.03;;;8.03;39.53
61761;BME280;47664;51.660;-0.100;2023-04-26T11:18:02;101144.77;;;8.21;39.51
61761;BME280;47664;51.660;-0.100;2023-04-26T11:20:30;101143.56;;;8.22;39.78
61761;BME280;47664;51.660;-0.100;2023-04-26T11:22:58;101134.52;;;8.34;39.86
61761;BME280;47664;51.660;-0.100;2023-04-26T11:25:26;101138.04;;;8.38;39.64
61761;BME280;47664;51.660;-0.100;2023-04-26T11:27:59;101139.22;;;8.26;40.52
61761;BME280;47664;51.660;-0.100;2023-04-26T11:30:28;101143.12;;;8.16;40.99
61761;BME280;47664;51.660;-0.100;2023-04-26T11:32:56;101138.53;;;8.17;40.56
61761;BME280;47664;51.660;-0.100;2023-04-26T11:35:23;101140.07;;;8.71;40.11
61761;BME280;47664;51.660;-0.100;2023-04-26T11:37:51;101139.70;;;8.43;40.01
61761;BME280;47664;51.660;-0.100;2023-04-26T11:40:18;101136.42;;;8.55;39.79
61761;BME280;47664;51.660;-0.100;2023-04-26T11:42:46;101135.98;;;8.41;40.01
61761;BME280;47664;51.660;-0.100;2023-04-26T11:45:14;101136.87;;;8.81;40.53
61761;BME280;47664;51.660;-0.100;2023-04-26T11:47:42;101135.78;;;7.91;40.29
61761;BME280;47664;51.660;-0.100;2023-04-26T11:50:10;101129.62;;;9.19;39.87
61761;BME280;47664;51.660;-0.100;2023-04-26T11:52:39;101131.85;;;8.66;39.32
61761;BME280;47664;51.660;-0.100;2023-04-26T11:55:07;101130.71;;;9.25;39.58
61761;BME280;47664;51.660;-0.100;2023-04-26T11:57:35;101120.53;;;8.74;39.96
61761;BME280;47664;51.660;-0.100;2023-04-26T12:00:10;101124.00;;;9.13;39.76
61761;BME280;47664;51.660;-0.100;2023-04-26T12:02:39;101122.82;;;8.93;39.23
61761;BME280;47664;51.660;-0.100;2023-04-26T12:05:07;101123.92;;;9.37;38.71
61761;BME280;47664;51.660;-0.100;2023-04-26T12:07:35;101127.14;;;9.27;38.02
61761;BME280;47664;51.660;-0.100;2023-04-26T12:10:21;101126.69;;;9.54;38.20
61761;BME280;47664;51.660;-0.100;2023-04-26T12:12:50;101131.27;;;9.14;38.24
61761;BME280;47664;51.660;-0.100;2023-04-26T12:15:21;101127.41;;;9.73;37.86
61761;BME280;47664;51.660;-0.100;2023-04-26T12:17:54;101127.94;;;9.36;38.68
61761;BME280;47664;51.660;-0.100;2023-04-26T12:20:31;101126.93;;;9.16;38.84
61761;BME280;47664;51.660;-0.100;2023-04-26T12:23:02;101125.85;;;9.08;38.39
61761;BME280;47664;51.660;-0.100;2023-04-26T12:25:30;101130.14;;;8.79;39.78
61761;BME280;47664;51.660;-0.100;2023-04-26T12:27:58;101126.29;;;9.33;39.14
61761;BME280;47664;51.660;-0.100;2023-04-26T12:30:27;101125.34;;;9.60;37.88
61761;BME280;47664;51.660;-0.100;2023-04-26T12:32:55;101121.28;;;9.69;37.34
61761;BME280;47664;51.660;-0.100;2023-04-26T12:35:23;101118.63;;;9.71;36.88
61761;BME280;47664;51.660;-0.100;2023-04-26T12:37:51;101118.22;;;9.61;35.74
61761;BME280;47664;51.660;-0.100;2023-04-26T12:40:18;101117.62;;;9.44;36.44
61761;BME280;47664;51.660;-0.100;2023-04-26T12:42:47;101118.04;;;9.26;36.69
61761;BME280;47664;51.660;-0.100;2023-04-26T12:45:15;101118.83;;;9.94;36.00
61761;BME280;47664;51.660;-0.100;2023-04-26T12:47:42;101118.24;;;9.96;35.03
61761;BME280;47664;51.660;-0.100;2023-04-26T12:50:10;101117.95;;;9.48;35.97
61761;BME280;47664;51.660;-0.100;2023-04-26T12:52:38;101110.73;;;9.12;36.13
61761;BME280;47664;51.660;-0.100;2023-04-26T12:55:06;101112.94;;;9.49;36.41
61761;BME280;47664;51.660;-0.100;2023-04-26T12:57:35;101110.15;;;9.26;35.67